Time;durP1;ratioP1;P1;durP2;ratioP2;P2;SDS_P1;SDS_P2;PMS_P1;PMS_P2;Temp;Humidity;BMP_temperature;BMP_pressure;BME280_temperature;BME280_humidity;BME280_pressure;Samples;Min_cycle;Max_cycle;Signal;HPM_P1;HPM_P2
2023/03/23 07:35:03;;;;;;;0.30;0.30;;;11.30;99.90;13.30;100005.00;;;;6332093;22;20256;-66
2023/03/23 07:37:51;;;;;;;0.20;0.20;;;11.40;99.90;12.90;100011.00;;;;6337218;22;20164;-66
2023/03/23 07:40:22;;;;;;;0.30;0.30;;;11.30;99.90;13.60;100030.00;;;;6311304;22;20164;-66
2023/03/23 07:43:10;;;;;;;0.30;0.30;;;11.40;99.90;13.00;100041.00;;;;6338394;22;20156;-66
2023/03/23 07:45:36;;;;;;;0.27;0.27;;;11.30;99.90;14.10;99992.00;;;;6337153;22;20164;-66
2023/03/23 07:48:12;;;;;;;0.30;0.30;;;11.60;99.90;14.60;100044.00;;;;6338692;22;20240;-66
2023/03/23 07:51:16;;;;;;;0.30;0.30;;;11.80;99.90;14.70;100044.00;;;;6338170;22;20163;-66
2023/03/23 07:53:51;;;;;;;0.20;0.20;;;11.90;99.90;14.70;100039.00;;;;6336987;22;20184;-66
2023/03/23 07:56:21;;;;;;;0.20;0.20;;;12.10;99.90;15.00;100045.00;;;;6336700;22;20192;-66
2023/03/23 07:58:47;;;;;;;0.20;0.20;;;12.10;99.90;13.50;100046.00;;;;6337001;22;20169;-66
2023/03/23 08:01:36;;;;;;;0.27;0.27;;;12.00;99.90;14.70;100060.00;;;;6336688;22;20195;-66
2023/03/23 08:04:07;;;;;;;0.27;0.27;;;12.10;99.90;14.70;100060.00;;;;6307556;22;20173;-66
2023/03/23 08:06:51;;;;;;;0.20;0.20;;;12.10;99.90;14.10;100069.00;;;;6329877;22;20592;-66
2023/03/23 08:09:16;;;;;;;0.20;0.20;;;12.00;99.90;14.10;100043.00;;;;6330203;22;20164;-66
2023/03/23 08:11:43;;;;;;;0.20;0.20;;;11.90;99.90;13.10;100029.00;;;;6305568;22;20191;-65
2023/03/23 08:14:09;;;;;;;0.20;0.20;;;11.70;99.90;13.30;100042.00;;;;6338246;22;20176;-66
2023/03/23 08:16:57;;;;;;;0.20;0.20;;;11.70;99.90;14.10;100070.00;;;;6335871;22;20583;-66
2023/03/23 08:19:43;;;;;;;0.20;0.20;;;11.90;99.90;14.40;100037.00;;;;6313335;22;20196;-66
2023/03/23 08:22:11;;;;;;;0.20;0.20;;;12.10;99.90;14.90;100023.00;;;;6335893;22;20155;-66
2023/03/23 08:24:38;;;;;;;0.20;0.20;;;12.50;99.90;14.70;100054.00;;;;6338246;22;20177;-66
2023/03/23 08:27:06;;;;;;;0.63;0.40;;;12.50;99.90;14.50;100078.00;;;;6337729;22;20156;-66
2023/03/23 08:29:55;;;;;;;0.67;0.67;;;12.60;99.90;15.50;100090.00;;;;6336356;22;20588;-66
2023/03/23 08:32:21;;;;;;;0.10;0.10;;;13.30;99.90;16.90;100097.00;;;;6336544;22;20261;-66
2023/03/23 08:34:50;;;;;;;0.10;0.10;;;14.10;99.90;17.20;100103.00;;;;6337945;22;20608;-66
2023/03/23 08:37:16;;;;;;;0.20;0.20;;;14.60;99.90;16.70;100129.00;;;;6337787;22;20209;-67
2023/03/23 08:40:19;;;;;;;0.20;0.20;;;14.90;99.90;16.40;100116.00;;;;6305206;22;20251;-67
2023/03/23 08:43:21;;;;;;;0.10;0.10;;;14.70;99.90;16.40;100111.00;;;;6336570;22;20187;-66
2023/03/23 08:45:49;;;;;;;0.10;0.10;;;14.90;99.90;17.40;100057.00;;;;6336476;22;20167;-67
2023/03/23 08:48:18;;;;;;;0.40;0.40;;;14.70;99.90;17.50;100130.00;;;;6336131;22;20190;-69
2023/03/23 08:50:44;;;;;;;0.10;0.10;;;15.20;99.90;18.80;100154.00;;;;6336639;22;20177;-67
2023/03/23 08:53:11;;;;;;;0.20;0.20;;;15.90;99.90;19.70;100166.00;;;;6338190;22;20504;-66
2023/03/23 08:55:38;;;;;;;0.23;0.23;;;16.60;99.90;18.30;100149.00;;;;6337571;22;20205;-66
2023/03/23 08:58:04;;;;;;;0.10;0.10;;;16.70;99.90;17.20;100125.00;;;;6337879;22;20589;-68
2023/03/23 09:00:32;;;;;;;2.90;0.93;;;15.40;99.90;15.80;100121.00;;;;6336436;22;20179;-68
2023/03/23 09:03:02;;;;;;;0.20;0.20;;;14.80;99.90;16.70;100139.00;;;;6310053;22;20596;-75
2023/03/23 09:05:38;;;;;;;0.10;0.10;;;14.40;99.90;18.10;100155.00;;;;6336252;22;20491;-70
2023/03/23 09:08:05;;;;;;;0.10;0.10;;;14.90;99.90;17.80;100160.00;;;;6336198;22;20617;-70
2023/03/23 09:11:06;;;;;;;0.13;0.13;;;15.30;99.90;17.50;100174.00;;;;6336424;22;20567;-69
2023/03/23 09:13:34;;;;;;;0.23;0.23;;;15.80;99.90;18.10;100162.00;;;;6313138;22;20274;-70
2023/03/23 09:16:08;;;;;;;1.20;0.73;;;15.80;99.90;15.40;100124.00;;;;6309572;22;20493;-69
2023/03/23 09:18:52;;;;;;;0.10;0.10;;;15.00;99.90;16.90;100155.00;;;;6336171;22;20681;-71
2023/03/23 09:22:00;;;;;;;0.23;0.23;;;14.70;99.90;18.30;100142.00;;;;6336258;22;20161;-72
2023/03/23 09:25:04;;;;;;;0.30;0.30;;;15.20;99.90;16.90;100158.00;;;;6334227;22;20222;-71
2023/03/23 09:27:52;;;;;;;0.20;0.20;;;14.80;99.90;17.10;100153.00;;;;6310441;22;20218;-71
2023/03/23 09:31:04;;;;;;;0.50;0.30;;;14.70;99.90;18.20;100189.00;;;;6310156;22;20175;-73
2023/03/23 09:33:36;;;;;;;0.10;0.10;;;15.60;99.90;17.80;100178.00;;;;6335105;22;20201;-72
2023/03/23 09:36:42;;;;;;;0.10;0.10;;;15.80;99.90;19.30;100186.00;;;;6336166;22;20164;-72
2023/03/23 09:39:11;;;;;;;1.13;0.37;;;16.20;99.90;18.20;100169.00;;;;6336449;22;20484;-71
2023/03/23 09:41:55;;;;;;;0.10;0.10;;;16.40;99.90;17.90;100162.00;;;;6336203;22;20173;-71
2023/03/23 09:44:42;;;;;;;1.07;1.07;;;15.80;99.90;17.50;100154.00;;;;6337418;22;20164;-72
2023/03/23 09:47:31;;;;;;;0.27;0.27;;;15.50;99.90;17.60;100170.00;;;;6335416;22;20180;-73
2023/03/23 09:50:26;;;;;;;0.60;0.60;;;15.40;99.90;18.60;100184.00;;;;6337874;22;20237;-71
2023/03/23 09:53:11;;;;;;;0.60;0.47;;;16.00;99.90;19.00;100176.00;;;;6335929;22;20193;-71
2023/03/23 09:55:37;;;;;;;0.10;0.10;;;16.50;99.90;17.00;100158.00;;;;6334138;22;20168;-70
2023/03/23 09:58:09;;;;;;;1.93;1.17;;;15.70;99.90;15.20;100153.00;;;;6335835;22;20176;-73
2023/03/23 10:00:43;;;;;;;0.10;0.10;;;14.50;99.90;16.80;100128.00;;;;6333322;22;20180;-70
2023/03/23 10:03:44;;;;;;;0.23;0.23;;;14.70;99.90;17.80;100187.00;;;;6333788;22;20536;-70
2023/03/23 10:06:18;;;;;;;0.10;0.10;;;15.20;99.90;17.30;100175.00;;;;6333959;22;20162;-70
2023/03/23 10:09:05;;;;;;;0.50;0.50;;;15.30;99.90;17.10;100170.00;;;;6334971;22;20249;-70
2023/03/23 10:12:19;;;;;;;0.10;0.10;;;15.30;99.90;16.30;100134.00;;;;6285390;22;20163;-70
2023/03/23 10:15:27;;;;;;;0.10;0.10;;;15.00;99.90;17.60;100179.00;;;;6333911;22;20201;-70
2023/03/23 10:18:06;;;;;;;0.77;0.50;;;15.10;99.90;16.90;100174.00;;;;6333334;22;20171;-70
2023/03/23 10:33:35;;;;;;;0.10;0.10;;;14.50;99.90;17.20;100160.00;;;;5075605;28;20619;-69
2023/03/23 10:36:35;;;;;;;1.00;0.90;;;14.90;99.90;16.40;100157.00;;;;5051230;28;20699;-69
2023/03/23 10:39:27;;;;;;;3.93;1.40;;;14.60;99.90;16.00;100165.00;;;;5035791;28;20315;-69
2023/03/23 10:42:14;;;;;;;0.40;0.40;;;14.70;99.90;17.40;100115.00;;;;5054331;28;20181;-70
2023/03/23 10:44:43;;;;;;;1.50;1.03;;;15.00;99.90;18.00;100194.00;;;;5038863;28;20181;-70
2023/03/23 10:47:15;;;;;;;0.20;0.20;;;15.60;99.90;16.20;100081.00;;;;5054316;28;20219;-69
2023/03/23 10:49:46;;;;;;;0.10;0.10;;;14.80;99.90;17.90;100124.00;;;;5055732;28;20648;-70
2023/03/23 10:52:35;;;;;;;0.10;0.10;;;15.20;99.90;17.00;100167.00;;;;5054882;28;20605;-70
2023/03/23 10:55:23;;;;;;;2.63;0.40;;;15.00;99.90;17.00;100179.00;;;;5054598;28;20673;-70
2023/03/23 10:58:11;;;;;;;0.10;0.10;;;15.00;99.90;16.60;100104.00;;;;5054356;28;20189;-70
2023/03/23 11:03:54;;;;;;;1.50;0.67;;;15.00;99.90;17.60;100191.00;;;;5055644;28;20653;-69
2023/03/23 11:06:30;;;;;;;0.10;0.10;;;15.70;99.90;18.50;100138.00;;;;5055342;28;20677;-69
2023/03/23 11:09:04;;;;;;;1.40;0.20;;;16.10;99.90;18.50;100216.00;;;;5054991;28;20180;-69
2023/03/23 11:11:48;;;;;;;3.20;1.23;;;16.30;99.90;17.80;100197.00;;;;5053340;28;20624;-70
2023/03/23 11:14:44;;;;;;;0.17;0.17;;;16.10;99.90;19.40;100183.00;;;;5053264;28;20198;-69
2023/03/23 11:18:11;;;;;;;0.10;0.10;;;16.40;99.90;17.90;100132.00;;;;5054677;28;20181;-70
2023/03/23 11:21:14;;;;;;;0.97;0.40;;;16.30;99.90;18.00;100186.00;;;;5047092;28;20692;-69
2023/03/23 11:24:17;;;;;;;3.87;1.97;;;16.30;99.90;16.10;100131.00;;;;5055056;28;20274;-70
2023/03/23 11:27:30;;;;;;;0.50;0.50;;;15.60;99.90;16.80;100155.00;;;;5037255;28;20186;-69
2023/03/23 11:30:12;;;;;;;2.90;0.93;;;15.10;99.90;17.00;100162.00;;;;5052272;28;20751;-69
2023/03/23 11:32:50;;;;;;;10.20;1.37;;;15.10;99.90;15.80;100147.00;;;;5053824;28;20579;-69
2023/03/23 11:36:24;;;;;;;0.57;0.57;;;14.80;99.90;17.00;100157.00;;;;5053432;28;20204;-70
2023/03/23 11:39:04;;;;;;;0.70;0.70;;;15.10;99.90;17.80;100159.00;;;;5056317;28;20986;-70
2023/03/23 11:42:14;;;;;;;5.03;2.20;;;15.70;99.90;16.60;100148.00;;;;5051205;28;20510;-69
2023/03/23 11:45:40;;;;;;;0.43;0.40;;;15.40;99.90;17.90;100175.00;;;;5024631;28;20224;-69
2023/03/23 11:52:33;;;;;;;0.93;0.37;;;15.80;99.90;19.80;100176.00;;;;5037901;28;20629;-68
2023/03/23 11:58:56;;;;;;;0.60;0.40;;;16.40;99.90;17.40;100190.00;;;;5035026;28;20197;-68
2023/03/23 12:01:32;;;;;;;0.93;0.93;;;15.80;99.90;17.90;100182.00;;;;5015345;28;20208;-67
2023/03/23 12:04:38;;;;;;;6.57;1.20;;;15.90;99.90;16.50;100164.00;;;;5034904;28;20673;-67
2023/03/23 12:07:30;;;;;;;1.73;0.63;;;15.50;99.90;17.10;100157.00;;;;5059674;28;20207;-67
2023/03/23 12:10:38;;;;;;;2.53;0.27;;;15.30;99.90;16.40;100164.00;;;;5028038;28;20190;-68
2023/03/23 12:13:52;;;;;;;0.70;0.60;;;14.90;99.90;15.40;100150.00;;;;5039177;28;20214;-67
2023/03/23 12:17:00;;;;;;;6.00;1.50;;;14.30;99.90;15.40;100142.00;;;;5028413;28;20212;-67
2023/03/23 12:20:10;;;;;;;0.20;0.20;;;13.90;99.90;16.20;100123.00;;;;5041897;28;20192;-68
2023/03/23 12:22:44;;;;;;;0.20;0.20;;;14.10;99.90;16.00;100115.00;;;;5039092;28;20204;-67
2023/03/23 12:25:59;;;;;;;1.43;1.33;;;13.90;99.90;16.70;100120.00;;;;5042283;28;20187;-67
2023/03/23 12:28:37;;;;;;;0.87;0.70;;;14.30;99.90;16.10;100086.00;;;;5033380;28;20193;-67
2023/03/23 12:31:31;;;;;;;0.20;0.20;;;14.40;99.90;15.60;100100.00;;;;5025628;28;20219;-67
2023/03/23 12:34:40;;;;;;;6.27;1.17;;;14.30;99.90;16.40;100112.00;;;;5039661;28;20914;-67
2023/03/23 12:37:43;;;;;;;1.03;0.90;;;14.50;99.90;15.80;100116.00;;;;5026228;28;20260;-67
2023/03/23 12:40:23;;;;;;;0.20;0.20;;;14.30;99.90;17.60;100092.00;;;;5029186;28;20186;-67
2023/03/23 12:43:01;;;;;;;1.07;0.97;;;14.80;99.90;18.00;100149.00;;;;5035024;28;20181;-67
2023/03/23 12:45:54;;;;;;;0.33;0.33;;;15.30;99.90;17.70;100163.00;;;;5033016;28;20179;-67
2023/03/23 12:48:44;;;;;;;0.20;0.20;;;15.60;99.90;17.40;100132.00;;;;5020181;28;20188;-67
2023/03/23 12:51:41;;;;;;;0.93;0.47;;;15.40;99.90;18.30;100153.00;;;;5063921;28;20179;-68
2023/03/23 12:55:02;;;;;;;0.20;0.20;;;15.70;99.90;17.10;100153.00;;;;5016350;28;20681;-67
2023/03/23 12:57:45;;;;;;;0.67;0.67;;;15.40;99.90;16.80;100149.00;;;;5020658;28;20242;-66
2023/03/23 13:00:43;;;;;;;0.40;0.40;;;15.10;99.90;16.70;100111.00;;;;5033274;28;20642;-66
2023/03/23 13:03:43;;;;;;;0.40;0.40;;;15.00;99.90;17.10;100148.00;;;;5034131;28;20200;-66
2023/03/23 13:06:39;;;;;;;1.90;1.80;;;14.80;99.90;16.00;100135.00;;;;5049753;28;20238;-66
2023/03/23 13:09:28;;;;;;;0.40;0.40;;;14.60;99.90;15.80;100129.00;;;;5030669;28;20185;-65
2023/03/23 13:11:57;;;;;;;0.20;0.20;;;14.50;99.90;16.70;100127.00;;;;5030592;28;20242;-66
2023/03/23 13:14:43;;;;;;;0.70;0.60;;;14.70;99.90;16.50;100149.00;;;;5016432;28;20333;-66
2023/03/23 13:17:37;;;;;;;0.63;0.60;;;14.80;99.90;16.70;100150.00;;;;5024158;28;20215;-66
2023/03/23 13:20:37;;;;;;;0.20;0.20;;;14.80;99.90;17.80;100158.00;;;;5029868;28;20696;-66
2023/03/23 13:23:31;;;;;;;2.83;0.57;;;15.20;99.90;16.60;100170.00;;;;5031688;28;20651;-66
2023/03/23 13:26:10;;;;;;;0.73;0.50;;;15.20;99.90;16.80;100170.00;;;;5015880;28;20184;-66
2023/03/23 13:29:27;;;;;;;0.97;0.90;;;15.10;99.90;17.50;100161.00;;;;5031973;28;20265;-66
2023/03/23 13:32:20;;;;;;;5.33;1.30;;;15.50;99.90;15.90;100142.00;;;;5012165;28;20241;-67
2023/03/23 13:35:05;;;;;;;0.20;0.20;;;15.00;99.90;17.20;100144.00;;;;5023912;28;20188;-66
2023/03/23 13:37:31;;;;;;;0.13;0.13;;;15.10;99.90;18.80;100137.00;;;;5032376;28;20187;-66
2023/03/23 13:40:27;;;;;;;0.40;0.40;;;15.60;99.90;18.70;100172.00;;;;5031072;28;20215;-67
2023/03/23 13:42:59;;;;;;;0.10;0.10;;;16.10;99.90;18.80;100166.00;;;;5064754;28;20676;-66
2023/03/23 13:45:29;;;;;;;1.20;0.43;;;16.30;99.90;17.70;100088.00;;;;5029067;28;20297;-67
2023/03/23 13:48:22;;;;;;;0.20;0.20;;;15.90;99.90;18.90;100162.00;;;;5032385;28;20276;-67
2023/03/23 13:51:49;;;;;;;4.43;1.20;;;15.90;99.90;19.20;100156.00;;;;5031255;28;20190;-67
2023/03/23 13:54:37;;;;;;;0.20;0.20;;;16.20;99.90;19.60;100157.00;;;;5019906;28;20208;-67
2023/03/23 13:57:20;;;;;;;0.17;0.17;;;16.50;99.90;18.50;100136.00;;;;5033720;28;20537;-67
2023/03/23 14:00:25;;;;;;;4.17;0.77;;;16.30;99.90;18.90;100133.00;;;;5028134;28;20185;-67
2023/03/23 14:03:20;;;;;;;0.87;0.50;;;16.50;99.90;17.40;100124.00;;;;5032240;28;20208;-66
2023/03/23 14:06:05;;;;;;;1.20;1.10;;;16.10;99.90;17.30;100127.00;;;;5028425;28;20645;-66
2023/03/23 14:08:31;;;;;;;0.10;0.10;;;15.60;99.90;17.60;100130.00;;;;5029386;28;20266;-67
2023/03/23 14:11:10;;;;;;;0.30;0.30;;;15.50;99.90;17.30;100140.00;;;;5032004;28;20643;-67
2023/03/23 14:13:42;;;;;;;0.10;0.10;;;15.40;99.90;17.70;100140.00;;;;5024067;28;20229;-67
2023/03/23 14:16:44;;;;;;;0.20;0.20;;;15.40;99.90;18.40;100094.00;;;;5031872;28;20190;-67
2023/03/23 14:19:50;;;;;;;0.10;0.10;;;15.50;99.90;19.10;100139.00;;;;5030790;28;20187;-67
2023/03/23 14:22:26;;;;;;;0.27;0.27;;;16.00;99.90;19.20;100143.00;;;;5008731;28;20279;-67
2023/03/23 14:25:11;;;;;;;0.20;0.20;;;16.30;99.90;19.90;100155.00;;;;5056831;28;20702;-67
2023/03/23 14:27:46;;;;;;;0.20;0.20;;;16.60;99.90;18.40;100156.00;;;;5044417;28;20560;-67
2023/03/23 14:30:24;;;;;;;0.20;0.20;;;16.40;99.90;18.30;100141.00;;;;5026385;28;20179;-67
2023/03/23 14:33:03;;;;;;;0.30;0.30;;;16.20;99.90;18.60;100135.00;;;;5031378;28;20227;-67
2023/03/23 14:35:39;;;;;;;0.10;0.10;;;16.40;99.90;19.60;100126.00;;;;5023519;28;20191;-67
2023/03/23 14:38:16;;;;;;;0.97;0.50;;;16.50;99.90;18.80;100135.00;;;;5021053;28;20181;-67
2023/03/23 14:41:21;;;;;;;2.00;0.60;;;16.50;99.90;18.20;100090.00;;;;5010151;28;20651;-67
2023/03/23 14:43:56;;;;;;;0.50;0.33;;;16.00;99.90;18.00;100108.00;;;;5022885;28;20187;-67
2023/03/23 14:46:24;;;;;;;0.20;0.20;;;16.10;99.90;18.50;100104.00;;;;5014612;28;20645;-67
2023/03/23 14:48:55;;;;;;;0.30;0.30;;;16.10;99.90;19.00;100092.00;;;;5031807;28;20591;-67
2023/03/23 14:51:25;;;;;;;0.43;0.43;;;16.20;99.90;17.80;100076.00;;;;5030910;28;20258;-67
2023/03/23 14:54:31;;;;;;;1.17;1.07;;;15.90;99.90;18.20;100074.00;;;;5032163;28;20180;-67
2023/03/23 14:57:25;;;;;;;0.20;0.20;;;15.90;99.90;18.30;100084.00;;;;5027713;28;20211;-67
2023/03/23 14:59:55;;;;;;;0.20;0.20;;;15.80;99.90;19.00;100097.00;;;;5031768;28;20186;-67
2023/03/23 15:02:43;;;;;;;2.23;0.50;;;16.10;99.90;17.80;100059.00;;;;5031619;28;20191;-67
2023/03/23 15:06:20;;;;;;;0.67;0.67;;;16.10;99.90;17.80;100063.00;;;;5032128;28;20626;-67
2023/03/23 15:08:48;;;;;;;0.67;0.63;;;15.80;99.90;17.30;100056.00;;;;5031319;28;20279;-67
2023/03/23 15:11:20;;;;;;;0.30;0.30;;;15.60;99.90;17.80;100037.00;;;;5030397;28;20735;-67
2023/03/23 15:13:57;;;;;;;1.10;0.47;;;15.60;99.90;17.50;100026.00;;;;5031910;28;20191;-67
2023/03/23 15:17:09;;;;;;;0.77;0.77;;;15.50;99.90;16.60;100018.00;;;;5032392;28;20210;-67
2023/03/23 15:20:18;;;;;;;1.17;1.07;;;15.10;99.90;17.30;100026.00;;;;5034519;28;20558;-67
2023/03/23 15:22:54;;;;;;;3.03;0.53;;;14.90;99.90;17.60;100032.00;;;;5045406;28;20202;-67
2023/03/23 15:26:12;;;;;;;0.73;0.73;;;15.10;99.90;16.80;100050.00;;;;5034060;28;20214;-67
2023/03/23 15:28:48;;;;;;;4.20;1.63;;;14.90;99.90;16.50;100027.00;;;;5034859;28;20345;-67
2023/03/23 15:31:14;;;;;;;0.57;0.30;;;14.80;99.90;16.60;100037.00;;;;5038736;28;20180;-67
2023/03/23 15:34:10;;;;;;;0.70;0.70;;;14.80;99.90;17.30;100044.00;;;;5072817;28;20190;-67
2023/03/23 15:36:40;;;;;;;0.43;0.30;;;15.00;99.90;16.90;100046.00;;;;5029999;28;20185;-67
2023/03/23 15:39:16;;;;;;;0.23;0.23;;;15.00;99.90;17.10;100039.00;;;;5034448;28;20219;-68
2023/03/23 15:42:30;;;;;;;0.33;0.33;;;15.10;99.90;17.30;100039.00;;;;5018549;28;20247;-69
2023/03/23 15:48:15;;;;;;;0.30;0.30;;;15.30;99.90;17.00;100045.00;;;;5033121;28;20200;-68
2023/03/23 15:50:52;;;;;;;0.20;0.20;;;15.20;99.90;17.50;100035.00;;;;5034651;28;20187;-68
2023/03/23 15:53:59;;;;;;;0.50;0.50;;;15.20;99.90;17.60;100042.00;;;;5034404;28;20203;-68
2023/03/23 15:56:40;;;;;;;0.20;0.20;;;15.50;99.90;17.60;99965.00;;;;5033516;28;20192;-68
2023/03/23 15:59:08;;;;;;;0.20;0.20;;;15.50;99.90;17.90;100010.00;;;;5017946;28;20642;-68
2023/03/23 16:01:38;;;;;;;1.50;0.87;;;15.60;99.90;17.80;100025.00;;;;5022977;28;20199;-69
2023/03/23 16:04:21;;;;;;;0.20;0.20;;;15.60;99.90;18.30;100036.00;;;;5030864;28;20206;-68
2023/03/23 16:06:51;;;;;;;0.43;0.43;;;15.80;99.90;18.10;100034.00;;;;5031408;28;21675;-68
2023/03/23 16:09:55;;;;;;;0.23;0.23;;;15.80;99.90;17.50;99971.00;;;;5028121;28;20185;-68
2023/03/23 16:12:23;;;;;;;0.37;0.37;;;15.80;99.90;17.80;100052.00;;;;5034198;28;20215;-68
2023/03/23 16:14:49;;;;;;;0.67;0.50;;;15.70;99.90;18.30;100054.00;;;;5034088;28;20221;-68
2023/03/23 16:17:36;;;;;;;0.23;0.23;;;15.80;99.90;17.00;99974.00;;;;5035363;28;20186;-68
2023/03/23 16:20:21;;;;;;;0.60;0.60;;;15.60;99.90;17.10;100029.00;;;;5026309;28;20194;-68
2023/03/23 16:22:49;;;;;;;0.20;0.20;;;15.30;99.90;17.50;100003.00;;;;5063979;28;20183;-68
2023/03/23 16:25:36;;;;;;;0.20;0.20;;;15.10;99.90;17.60;100000.00;;;;5033498;28;20661;-68
2023/03/23 16:28:22;;;;;;;0.30;0.30;;;15.10;99.90;17.50;100000.00;;;;5049881;28;20189;-68
2023/03/23 16:30:49;;;;;;;0.60;0.60;;;15.00;99.90;16.80;99996.00;;;;5024198;28;20229;-69
2023/03/23 16:33:18;;;;;;;0.20;0.20;;;14.80;99.90;17.40;99994.00;;;;5034893;28;20227;-68
2023/03/23 16:35:57;;;;;;;0.20;0.20;;;14.70;99.90;18.60;100014.00;;;;5034100;28;20217;-69
2023/03/23 16:38:39;;;;;;;0.20;0.20;;;15.10;99.90;18.60;100025.00;;;;5033619;28;20183;-69
2023/03/23 16:41:08;;;;;;;0.20;0.20;;;15.40;99.90;18.20;100028.00;;;;5033265;28;20217;-68
2023/03/23 16:43:43;;;;;;;0.73;0.37;;;15.20;99.90;17.30;100008.00;;;;5033410;28;20217;-70
2023/03/23 16:46:15;;;;;;;0.20;0.20;;;15.10;99.90;16.90;99949.00;;;;5032471;28;20637;-68
2023/03/23 16:49:10;;;;;;;0.20;0.20;;;14.80;99.90;17.30;99935.00;;;;5026220;28;20202;-68
2023/03/23 16:51:41;;;;;;;0.77;0.77;;;14.80;99.90;17.00;99988.00;;;;5030192;28;20218;-68
2023/03/23 16:54:48;;;;;;;0.63;0.63;;;14.80;99.90;17.10;99981.00;;;;5029101;28;20237;-68
2023/03/23 16:58:12;;;;;;;1.97;1.33;;;14.70;99.90;16.90;99976.00;;;;5018262;28;20194;-69
2023/03/23 17:01:21;;;;;;;0.20;0.20;;;14.80;99.90;17.60;99962.00;;;;5033119;28;20663;-69
2023/03/23 17:04:30;;;;;;;0.80;0.80;;;15.00;99.90;16.70;99989.00;;;;5028845;28;20184;-68
2023/03/23 17:07:34;;;;;;;2.70;1.30;;;15.00;99.90;17.10;99966.00;;;;5023234;28;20191;-68
2023/03/23 17:10:48;;;;;;;0.43;0.43;;;14.90;99.90;17.30;99986.00;;;;5018815;28;20270;-69
2023/03/23 17:13:55;;;;;;;0.20;0.20;;;15.10;99.90;17.70;99968.00;;;;5025468;28;20207;-69
2023/03/23 17:16:52;;;;;;;0.20;0.20;;;15.00;99.90;16.80;99979.00;;;;5024926;28;20200;-69
2023/03/23 17:20:05;;;;;;;0.20;0.20;;;15.00;99.90;17.50;99987.00;;;;5033238;28;20241;-68
2023/03/23 17:23:29;;;;;;;0.20;0.20;;;15.20;99.90;17.50;99983.00;;;;5033863;28;20182;-69
2023/03/23 17:26:40;;;;;;;0.50;0.50;;;15.20;99.90;17.60;99987.00;;;;5032671;28;20256;-69
2023/03/23 17:29:55;;;;;;;0.73;0.73;;;15.20;99.90;17.10;99981.00;;;;5046740;28;20328;-69
2023/03/23 17:33:12;;;;;;;0.90;0.33;;;15.10;99.90;17.00;99970.00;;;;5027609;28;20319;-68
2023/03/23 17:36:27;;;;;;;0.20;0.20;;;15.10;99.90;18.10;99981.00;;;;5032388;28;20611;-69
2023/03/23 17:39:23;;;;;;;0.30;0.30;;;15.20;99.90;17.60;99964.00;;;;5028759;28;20188;-69
2023/03/23 17:42:15;;;;;;;0.30;0.30;;;15.40;99.90;17.30;99968.00;;;;5029703;28;20213;-69
2023/03/23 17:45:06;;;;;;;1.90;1.53;;;15.20;99.90;17.20;99894.00;;;;5031521;28;20209;-69
2023/03/23 17:48:21;;;;;;;1.37;0.53;;;15.10;99.90;17.40;99968.00;;;;5019815;28;20210;-68
2023/03/23 17:51:33;;;;;;;0.43;0.43;;;15.10;99.90;17.30;99968.00;;;;5047344;28;20206;-68
2023/03/23 17:54:45;;;;;;;0.40;0.40;;;15.10;99.90;17.40;99887.00;;;;5033626;28;20198;-69
2023/03/23 17:57:55;;;;;;;1.60;0.60;;;15.10;99.90;16.90;99939.00;;;;5034407;28;20670;-68
2023/03/23 18:00:37;;;;;;;1.40;1.03;;;15.10;99.90;17.20;99938.00;;;;5034072;28;20301;-69
2023/03/23 18:03:24;;;;;;;1.53;0.97;;;15.00;99.90;16.70;99949.00;;;;5034186;28;20208;-68
2023/03/23 18:06:03;;;;;;;0.80;0.80;;;15.00;99.90;16.90;99953.00;;;;5050734;28;20672;-68
2023/03/23 18:08:35;;;;;;;2.37;0.40;;;15.00;99.90;17.50;99953.00;;;;5011472;28;20194;-68
2023/03/23 18:11:02;;;;;;;0.60;0.60;;;15.10;99.90;17.20;99940.00;;;;5032622;28;20190;-68
2023/03/23 18:13:32;;;;;;;5.97;1.37;;;15.00;99.90;17.10;99943.00;;;;5031754;28;20222;-68
2023/03/23 18:16:02;;;;;;;1.70;0.97;;;15.00;99.90;17.00;99955.00;;;;5031745;28;20214;-68
2023/03/23 18:18:28;;;;;;;1.10;0.60;;;15.00;99.90;17.20;99952.00;;;;5032987;28;20187;-68
2023/03/23 18:21:28;;;;;;;0.10;0.10;;;15.00;99.90;17.50;99951.00;;;;5011826;28;20187;-69
2023/03/23 18:23:57;;;;;;;1.90;1.80;;;15.00;99.90;17.20;99933.00;;;;5047780;28;20573;-68
2023/03/23 18:26:25;;;;;;;0.73;0.73;;;14.90;99.90;17.40;99932.00;;;;5032205;28;20198;-68
2023/03/23 18:28:56;;;;;;;2.03;0.83;;;15.00;99.90;17.50;99927.00;;;;5031425;28;20183;-69
2023/03/23 18:31:22;;;;;;;1.30;0.70;;;15.10;99.90;17.60;99934.00;;;;5031610;28;20208;-68
2023/03/23 18:34:00;;;;;;;2.10;1.37;;;15.10;99.90;17.00;99866.00;;;;5031366;28;20182;-68
2023/03/23 18:36:28;;;;;;;1.03;0.40;;;15.00;99.90;16.60;99928.00;;;;5032485;28;20193;-68
2023/03/23 18:38:57;;;;;;;0.93;0.93;;;14.70;99.90;16.70;99922.00;;;;5030328;28;20184;-69
2023/03/23 18:41:24;;;;;;;3.77;1.43;;;14.60;99.90;16.50;99910.00;;;;5031623;28;20201;-68
2023/03/23 18:43:57;;;;;;;2.90;2.70;;;14.60;99.90;16.50;99910.00;;;;5030228;28;20193;-68
2023/03/23 18:46:41;;;;;;;0.40;0.40;;;14.50;99.90;16.40;99897.00;;;;5031804;28;20192;-68
2023/03/23 18:49:10;;;;;;;0.60;0.37;;;14.40;99.90;16.10;99828.00;;;;5031153;28;20177;-68
2023/03/23 18:52:03;;;;;;;0.27;0.27;;;14.30;99.90;16.30;99899.00;;;;5032788;28;20251;-70
2023/03/23 18:55:08;;;;;;;0.27;0.27;;;14.30;99.90;16.40;99885.00;;;;5034861;28;20212;-69
2023/03/23 18:57:43;;;;;;;0.20;0.20;;;14.30;99.90;16.30;99878.00;;;;5043007;28;20693;-68
2023/03/23 19:00:15;;;;;;;0.43;0.43;;;14.30;99.90;16.20;99887.00;;;;5043023;28;20638;-68
2023/03/23 19:03:02;;;;;;;0.63;0.63;;;14.30;99.90;16.30;99876.00;;;;5027460;28;20210;-69
2023/03/23 19:05:47;;;;;;;3.13;0.53;;;14.30;99.90;16.20;99868.00;;;;5027868;28;20663;-69
2023/03/23 19:08:21;;;;;;;0.53;0.47;;;14.30;99.90;16.10;99852.00;;;;5043768;28;20184;-68
2023/03/23 19:10:59;;;;;;;2.30;1.73;;;14.20;99.90;15.60;99857.00;;;;5042544;28;20193;-69
2023/03/23 19:13:35;;;;;;;0.20;0.20;;;14.10;99.90;16.10;99855.00;;;;5025950;28;20213;-68
2023/03/23 19:16:04;;;;;;;2.17;1.73;;;14.10;99.90;15.70;99850.00;;;;5050693;28;20617;-68
2023/03/23 19:18:29;;;;;;;0.30;0.30;;;14.10;99.90;15.80;99787.00;;;;5026301;28;20693;-68
2023/03/23 19:21:15;;;;;;;0.20;0.20;;;14.10;99.90;15.80;99844.00;;;;5041478;28;20200;-68
2023/03/23 19:23:44;;;;;;;0.40;0.40;;;14.10;99.90;16.50;99842.00;;;;5027940;28;20252;-68
2023/03/23 19:26:56;;;;;;;0.83;0.83;;;14.20;99.90;16.10;99831.00;;;;5037074;28;20560;-68
2023/03/23 19:30:15;;;;;;;1.70;1.60;;;14.20;99.90;15.80;99774.00;;;;5041707;28;20199;-68
2023/03/23 19:33:27;;;;;;;1.30;1.10;;;14.10;99.90;16.20;99829.00;;;;5038906;28;20223;-68
2023/03/23 19:36:49;;;;;;;0.20;0.20;;;14.20;99.90;16.30;99827.00;;;;5042132;28;20181;-68
2023/03/23 19:39:41;;;;;;;2.00;0.77;;;14.20;99.90;16.10;99807.00;;;;5041256;28;20247;-68
2023/03/23 19:42:55;;;;;;;0.60;0.60;;;14.30;99.90;16.00;99821.00;;;;5033176;28;20672;-69
2023/03/23 19:46:25;;;;;;;0.73;0.57;;;14.20;99.90;15.90;99819.00;;;;5032978;28;20247;-69
2023/03/23 19:49:39;;;;;;;2.20;0.50;;;14.20;99.90;16.10;99809.00;;;;5039279;28;20179;-69
2023/03/23 19:52:43;;;;;;;0.60;0.60;;;14.20;99.90;16.50;99807.00;;;;5039365;28;20209;-69
2023/03/23 19:56:11;;;;;;;0.43;0.43;;;14.30;99.90;16.00;99821.00;;;;5036495;28;20236;-69
2023/03/23 19:59:27;;;;;;;0.47;0.47;;;14.30;99.90;15.80;99820.00;;;;5038379;28;20305;-69
2023/03/23 20:02:34;;;;;;;0.83;0.83;;;14.30;99.90;15.90;99799.00;;;;5023223;28;20238;-68
2023/03/23 20:05:42;;;;;;;0.40;0.40;;;14.30;99.90;16.20;99789.00;;;;5035719;28;20204;-68
2023/03/23 20:08:54;;;;;;;3.57;1.47;;;14.40;99.90;15.80;99793.00;;;;5008855;28;20282;-68
2023/03/23 20:12:20;;;;;;;2.07;1.70;;;14.20;99.90;16.10;99793.00;;;;5009055;28;20200;-69
2023/03/23 20:15:38;;;;;;;1.00;0.93;;;14.20;99.90;15.50;99784.00;;;;5023878;28;20296;-68
2023/03/23 20:19:30;;;;;;;0.50;0.50;;;14.10;99.90;16.00;99797.00;;;;5006263;28;20209;-68
2023/03/23 20:22:35;;;;;;;0.90;0.90;;;14.20;99.90;15.60;99792.00;;;;5023305;28;20932;-69